Hauptseite
METAR-TAF:

METAR-TAF

Flughäfen :

Hanoi, Vietnam

Flughafen Hanoi

Breite: 21-01N, Länge: 105-48E, Höhe: 6 m

Beobachtung

Neuester Wetterbericht von vor 29 Minuten, um 21:00 UTC
Wind 7 kt aus Ost
Temperatur 22°C
Luftfeuchtigkeit 94%
Luftdruck 1010 hPa
Sichtweite: 4700 m
feuchter Dunst

METAR: VVNB 292100Z 08007KT 4700 BR NSC 22/21 Q1010 NOSIG

Zeit: 04:29 (21:29 UTC)

Prognose

Neuester Wetterbericht von vor 4 Stunden und 29 Minuten, um 17:00 UTC
Gültige Prognose vom 29 um 18 UTC bis 30 um 18 UTC
Wind 8 kt aus Ost/Südost
Sichtweite: 7000 m
Aufgelockert bewölkt in der Höhe von 2000 ft
Übergehend zu
vom 29 um 22 UTC bis 29 um 23 UTC
Sichtweite: 4000 m
feuchter Dunst
Übergehend zu
vom 30 um 01 UTC bis 30 um 02 UTC
Sichtweite: 7000 m

TAF: VVNB 291700Z 2918/3018 12008KT 7000 SCT020 BECMG 2922/2923 4000 BR BECMG 3001/3002 7000 NSW

Wetterbeobachtungen und Prognosen von mehr als 4000 Flughäfen (METAR und TAF Bericht).

Die verfügbaren Stationen werden durch gelbe und rote Markierungen auf der Karte dargestellt.

Führen Sie die Maus auf sie, um den Namen der Station zu sehen.

Darauf klicken, um die Beobachtung von Wetterbeobachtungen und Prognosen zu sehen.

Um die Karte zu ändern : klicken Sie auf den grünen Tasten mit einem schwarzen Kreuz Zum Vergrößern, auf den grünen Button mit einem Gedankenstrich zu verkleinern, oder auf die grünen Pfeile für benachbarte Karten.


METAR-TAF: